createdAt,value
2023-05-06T00:01:12.337Z,11.60
2023-05-06T00:03:39.555Z,11.60
2023-05-06T00:06:07.435Z,11.60
2023-05-06T00:08:34.199Z,11.60
2023-05-06T00:11:01.058Z,11.70
2023-05-06T00:13:27.858Z,11.70
2023-05-06T00:15:54.625Z,11.70
2023-05-06T00:18:22.790Z,11.70
2023-05-06T00:20:49.815Z,11.70
2023-05-06T00:23:16.677Z,11.70
2023-05-06T00:25:43.451Z,11.70
2023-05-06T00:28:10.198Z,11.70
2023-05-06T00:30:36.931Z,11.70
2023-05-06T00:33:03.740Z,11.60
2023-05-06T00:35:30.742Z,11.60
2023-05-06T00:38:11.669Z,11.60
2023-05-06T00:40:38.586Z,11.70
2023-05-06T00:43:05.588Z,11.60
2023-05-06T00:45:32.706Z,11.60
2023-05-06T00:50:34.500Z,11.50
2023-05-06T00:53:03.886Z,11.50
2023-05-06T00:55:31.499Z,11.40
2023-05-06T00:57:58.471Z,11.40
2023-05-06T01:00:25.674Z,11.30
2023-05-06T01:02:52.525Z,11.20
2023-05-06T01:05:22.348Z,11.20
2023-05-06T01:08:12.152Z,11.10
2023-05-06T01:10:44.425Z,11.10
2023-05-06T01:13:39.270Z,11.00
2023-05-06T01:16:08.609Z,11.00
2023-05-06T01:18:38.378Z,11.00
2023-05-06T01:21:05.862Z,11.00
2023-05-06T01:23:57.640Z,11.00
2023-05-06T01:26:25.410Z,11.00
2023-05-06T01:28:52.497Z,10.90
2023-05-06T01:31:29.969Z,10.90
2023-05-06T01:34:31.255Z,10.90
2023-05-06T01:36:57.988Z,10.90
2023-05-06T01:39:30.804Z,10.90
2023-05-06T01:42:00.344Z,10.90
2023-05-06T01:44:31.899Z,10.90
2023-05-06T01:46:58.739Z,11.00
2023-05-06T01:49:26.443Z,11.00
2023-05-06T01:51:54.550Z,10.90
2023-05-06T01:54:21.452Z,10.90
2023-05-06T01:56:48.152Z,10.90
2023-05-06T01:59:14.944Z,10.90
2023-05-06T02:01:41.725Z,10.90
2023-05-06T02:04:08.548Z,10.90
2023-05-06T02:06:35.365Z,10.90
2023-05-06T02:09:02.204Z,10.90
2023-05-06T02:11:29.070Z,10.90
2023-05-06T02:13:55.764Z,10.90
2023-05-06T02:16:22.561Z,10.90
2023-05-06T02:18:49.409Z,10.90
2023-05-06T02:21:16.362Z,10.90
2023-05-06T02:23:43.062Z,10.90
2023-05-06T02:26:10.597Z,10.90
2023-05-06T02:28:37.411Z,10.80
2023-05-06T02:31:04.099Z,10.80
2023-05-06T02:33:30.884Z,10.80
2023-05-06T02:35:57.579Z,10.80
2023-05-06T02:38:24.338Z,10.70
2023-05-06T02:40:51.028Z,10.70
2023-05-06T02:43:17.729Z,10.70
2023-05-06T02:45:44.527Z,10.70
2023-05-06T02:48:11.240Z,10.70
2023-05-06T02:50:37.935Z,10.60
2023-05-06T02:53:04.747Z,10.60
2023-05-06T02:55:31.639Z,10.60
2023-05-06T02:57:58.350Z,10.60
2023-05-06T03:00:25.066Z,10.60
2023-05-06T03:02:51.877Z,10.60
2023-05-06T03:05:18.736Z,10.60
2023-05-06T03:07:45.547Z,10.60
2023-05-06T03:10:12.358Z,10.50
2023-05-06T03:12:39.174Z,10.50
2023-05-06T03:15:07.225Z,10.50
2023-05-06T03:17:34.045Z,10.60
2023-05-06T03:20:00.866Z,10.60
2023-05-06T03:22:27.568Z,10.70
2023-05-06T03:24:54.246Z,10.70
2023-05-06T03:27:20.936Z,10.70
2023-05-06T03:29:47.658Z,10.70
2023-05-06T03:32:14.354Z,10.70
2023-05-06T03:34:41.061Z,10.70
2023-05-06T03:37:07.812Z,10.70
2023-05-06T03:39:34.492Z,10.70
2023-05-06T03:42:02.269Z,10.60
2023-05-06T03:44:29.317Z,10.60
2023-05-06T03:46:56.045Z,10.70
2023-05-06T03:49:22.761Z,10.70
2023-05-06T03:51:49.635Z,10.60
2023-05-06T03:54:16.368Z,10.60
2023-05-06T03:56:43.062Z,10.60
2023-05-06T03:59:09.813Z,10.60
2023-05-06T04:01:36.519Z,10.60
2023-05-06T04:04:03.332Z,10.60
2023-05-06T04:06:30.138Z,10.60
2023-05-06T04:08:56.848Z,10.60
2023-05-06T04:11:23.526Z,10.70
2023-05-06T04:13:50.292Z,10.70
2023-05-06T04:16:17.125Z,10.80
2023-05-06T04:18:44.100Z,10.80
2023-05-06T04:21:12.191Z,10.80
2023-05-06T04:23:39.014Z,10.90
2023-05-06T04:26:06.080Z,11.00
2023-05-06T04:28:33.026Z,11.00
2023-05-06T04:30:59.794Z,11.10
2023-05-06T04:33:27.395Z,11.10
2023-05-06T04:35:54.323Z,11.20
2023-05-06T04:38:27.067Z,11.20
2023-05-06T04:40:53.854Z,11.30
2023-05-06T04:43:20.620Z,11.40
2023-05-06T04:45:49.647Z,11.50
2023-05-06T04:48:22.273Z,11.80
2023-05-06T04:50:49.789Z,12.10
2023-05-06T04:53:17.143Z,12.60
2023-05-06T04:55:43.988Z,12.80
2023-05-06T04:58:10.731Z,13.00
2023-05-06T05:00:37.580Z,13.40
2023-05-06T05:03:04.449Z,14.20
2023-05-06T05:05:33.240Z,15.00
2023-05-06T05:08:00.038Z,15.50
2023-05-06T05:10:26.851Z,15.10
2023-05-06T05:12:53.599Z,14.80
2023-05-06T05:15:21.244Z,14.50
2023-05-06T05:17:48.297Z,14.20
2023-05-06T05:20:15.213Z,13.90
2023-05-06T05:22:41.959Z,13.70
2023-05-06T05:25:08.883Z,13.60
2023-05-06T05:27:36.385Z,13.40
2023-05-06T05:30:03.641Z,13.30
2023-05-06T05:32:30.411Z,13.20
2023-05-06T05:34:57.210Z,13.20
2023-05-06T05:37:23.944Z,13.10
2023-05-06T05:39:50.723Z,13.10
2023-05-06T05:42:17.497Z,13.10
2023-05-06T05:44:44.198Z,13.10
2023-05-06T05:47:11.010Z,13.10
2023-05-06T05:49:37.701Z,13.20
2023-05-06T05:52:04.730Z,13.20
2023-05-06T05:54:31.486Z,13.20
2023-05-06T05:56:58.240Z,13.30
2023-05-06T05:59:25.839Z,13.30
2023-05-06T06:01:52.549Z,13.40
2023-05-06T06:04:19.444Z,13.40
2023-05-06T06:06:46.404Z,13.50
2023-05-06T06:09:13.767Z,13.50
2023-05-06T06:11:40.723Z,13.50
2023-05-06T06:14:07.499Z,13.50
2023-05-06T06:16:34.509Z,13.50
2023-05-06T06:19:01.318Z,13.50
2023-05-06T06:21:28.078Z,13.60
2023-05-06T06:23:55.287Z,13.60
2023-05-06T06:26:21.994Z,13.60
2023-05-06T06:28:48.722Z,13.70
2023-05-06T06:31:15.740Z,13.70
2023-05-06T06:33:42.477Z,13.70
2023-05-06T06:36:09.485Z,13.70
2023-05-06T06:38:36.214Z,13.70
2023-05-06T06:41:03.046Z,13.80
2023-05-06T06:43:29.833Z,13.80
2023-05-06T06:45:56.831Z,13.80
2023-05-06T06:48:23.685Z,13.80
2023-05-06T06:50:50.611Z,13.80
2023-05-06T06:53:17.470Z,13.80
2023-05-06T06:55:47.357Z,13.90
2023-05-06T06:58:14.208Z,13.90
2023-05-06T07:00:40.941Z,14.00
2023-05-06T07:03:07.819Z,14.00
2023-05-06T07:05:34.613Z,14.00
2023-05-06T07:08:01.336Z,14.10
2023-05-06T07:10:28.143Z,14.20
2023-05-06T07:12:54.969Z,14.40
2023-05-06T07:15:21.870Z,14.50
2023-05-06T07:17:48.568Z,14.60
2023-05-06T07:20:16.232Z,14.80
2023-05-06T07:22:43.705Z,15.10
2023-05-06T07:25:10.833Z,15.30
2023-05-06T07:27:38.215Z,15.60
2023-05-06T07:30:05.561Z,16.10
2023-05-06T07:32:32.317Z,16.90
2023-05-06T07:34:59.177Z,17.60
2023-05-06T07:37:25.930Z,18.20
2023-05-06T07:39:52.708Z,18.60
2023-05-06T07:42:19.443Z,19.10
2023-05-06T07:44:46.271Z,19.70
2023-05-06T07:47:25.320Z,20.30
2023-05-06T07:49:52.112Z,21.00
2023-05-06T07:52:18.844Z,21.50
2023-05-06T07:54:45.704Z,21.70
2023-05-06T07:57:12.422Z,21.50
2023-05-06T07:59:39.171Z,21.10
2023-05-06T08:02:05.957Z,20.70
2023-05-06T08:04:32.820Z,20.30
2023-05-06T08:06:59.590Z,20.10
2023-05-06T08:09:26.324Z,20.00
2023-05-06T08:11:53.572Z,19.90
2023-05-06T08:14:20.296Z,19.80
2023-05-06T08:16:47.203Z,19.70
2023-05-06T08:19:13.972Z,19.60
2023-05-06T08:21:41.194Z,19.60
2023-05-06T08:24:08.054Z,19.70
2023-05-06T08:26:34.785Z,19.80
2023-05-06T08:29:03.105Z,19.80
2023-05-06T08:31:29.968Z,19.90
2023-05-06T08:33:56.671Z,20.10
2023-05-06T08:36:23.418Z,20.40
2023-05-06T08:38:51.022Z,20.60
2023-05-06T08:41:19.922Z,20.90
2023-05-06T08:43:48.555Z,21.20
2023-05-06T08:46:15.818Z,21.70
2023-05-06T08:48:43.003Z,22.20
2023-05-06T08:51:11.719Z,22.20
2023-05-06T08:53:42.327Z,22.10
2023-05-06T08:56:11.579Z,21.80
2023-05-06T08:58:40.960Z,21.40
2023-05-06T09:01:08.010Z,21.00
2023-05-06T09:03:34.852Z,20.70
2023-05-06T09:06:02.305Z,20.30
2023-05-06T09:08:29.029Z,20.20
2023-05-06T09:10:55.786Z,20.40
2023-05-06T09:13:22.609Z,20.70
2023-05-06T09:15:49.615Z,20.90
2023-05-06T09:18:16.944Z,21.20
2023-05-06T09:20:49.280Z,21.50
2023-05-06T09:23:17.788Z,21.90
2023-05-06T09:25:46.490Z,22.50
2023-05-06T09:28:14.276Z,23.00
2023-05-06T09:30:42.362Z,23.30
2023-05-06T09:33:10.144Z,23.60
2023-05-06T09:35:42.730Z,23.80
2023-05-06T09:38:10.016Z,23.90
2023-05-06T09:40:37.993Z,23.70
2023-05-06T09:43:05.853Z,23.60
2023-05-06T09:45:33.335Z,23.50
2023-05-06T09:48:00.683Z,23.60
2023-05-06T09:50:27.604Z,23.80
2023-05-06T09:52:55.989Z,23.90
2023-05-06T09:55:26.513Z,23.90
2023-05-06T09:57:53.575Z,24.40
2023-05-06T10:00:26.878Z,25.20
2023-05-06T10:02:55.103Z,26.00
2023-05-06T10:05:24.935Z,26.50
2023-05-06T10:07:53.465Z,26.60
2023-05-06T10:10:21.235Z,26.20
2023-05-06T10:12:49.917Z,26.00
2023-05-06T10:15:16.820Z,25.90
2023-05-06T10:17:47.452Z,26.00
2023-05-06T10:20:15.033Z,26.10
2023-05-06T10:22:52.741Z,26.10
2023-05-06T10:25:42.551Z,26.00
2023-05-06T10:28:12.896Z,25.70
2023-05-06T10:30:51.038Z,25.10
2023-05-06T10:33:18.115Z,25.00
2023-05-06T10:35:52.957Z,25.40
2023-05-06T10:38:34.492Z,25.90
2023-05-06T10:41:02.183Z,26.20
2023-05-06T10:43:32.862Z,26.20
2023-05-06T10:46:17.366Z,26.10
2023-05-06T10:49:06.295Z,26.20
2023-05-06T10:51:33.948Z,26.20
2023-05-06T10:54:11.352Z,25.70
2023-05-06T10:56:40.010Z,25.30
2023-05-06T10:59:11.743Z,25.40
2023-05-06T11:01:40.487Z,25.60
2023-05-06T11:04:12.644Z,25.90
2023-05-06T11:06:48.154Z,25.50
2023-05-06T11:09:23.043Z,25.10
2023-05-06T11:12:05.851Z,24.90
2023-05-06T11:14:38.986Z,24.90
2023-05-06T11:17:07.750Z,24.90
2023-05-06T11:19:36.484Z,24.80
2023-05-06T11:22:05.416Z,24.60
2023-05-06T11:24:43.307Z,24.50
2023-05-06T11:27:11.167Z,24.60
2023-05-06T11:29:38.200Z,24.60
2023-05-06T11:32:25.165Z,24.50
2023-05-06T11:34:56.356Z,24.10
2023-05-06T11:37:27.972Z,23.60
2023-05-06T11:39:55.151Z,23.10
2023-05-06T11:42:29.146Z,22.90
2023-05-06T11:45:00.519Z,23.00
2023-05-06T11:47:27.279Z,23.20
2023-05-06T11:49:54.853Z,23.70
2023-05-06T11:52:21.720Z,24.00
2023-05-06T11:54:50.825Z,24.30
2023-05-06T11:57:19.624Z,24.40
2023-05-06T11:59:46.413Z,24.40
2023-05-06T12:02:14.459Z,24.30
2023-05-06T12:04:46.569Z,24.20
2023-05-06T12:07:15.448Z,24.10
2023-05-06T12:09:45.794Z,24.00
2023-05-06T12:12:14.936Z,23.90
2023-05-06T12:14:41.826Z,23.70
2023-05-06T12:17:08.745Z,23.50
2023-05-06T12:19:35.732Z,23.50
2023-05-06T12:22:24.549Z,23.40
2023-05-06T12:24:51.422Z,23.30
2023-05-06T12:27:34.747Z,23.30
2023-05-06T12:30:04.133Z,23.30
2023-05-06T12:32:31.238Z,23.20
2023-05-06T12:34:59.481Z,23.00
2023-05-06T12:37:29.216Z,23.10
2023-05-06T12:39:59.225Z,23.20
2023-05-06T12:42:26.604Z,23.30
2023-05-06T12:44:53.426Z,23.40
2023-05-06T12:47:25.725Z,23.40
2023-05-06T12:49:54.373Z,23.30
2023-05-06T12:52:23.137Z,23.30
2023-05-06T12:54:51.888Z,23.30
2023-05-06T12:57:19.134Z,23.00
2023-05-06T12:59:46.461Z,22.80
2023-05-06T13:02:13.752Z,22.70
2023-05-06T13:04:40.846Z,22.50
2023-05-06T13:07:07.753Z,22.50
2023-05-06T13:09:34.469Z,22.50
2023-05-06T13:12:02.750Z,22.60
2023-05-06T13:14:29.466Z,22.70
2023-05-06T13:16:56.346Z,22.70
2023-05-06T13:19:32.284Z,22.60
2023-05-06T13:22:00.505Z,22.50
2023-05-06T13:24:27.731Z,22.40
2023-05-06T13:26:56.069Z,22.30
2023-05-06T13:29:23.595Z,22.20
2023-05-06T13:31:51.336Z,22.10
2023-05-06T13:34:18.537Z,22.20
2023-05-06T13:36:46.766Z,22.30
2023-05-06T13:39:13.851Z,22.20
2023-05-06T13:41:40.638Z,22.10
2023-05-06T13:44:07.392Z,22.00
2023-05-06T13:46:34.146Z,21.90
2023-05-06T13:49:01.028Z,21.90
2023-05-06T13:51:29.947Z,21.90
2023-05-06T13:53:56.782Z,21.90
2023-05-06T13:56:23.578Z,21.90
2023-05-06T13:58:50.439Z,22.00
2023-05-06T14:01:17.281Z,21.90
2023-05-06T14:03:44.012Z,21.70
2023-05-06T14:06:11.588Z,21.60
2023-05-06T14:08:38.532Z,21.50
2023-05-06T14:11:05.552Z,21.40
2023-05-06T14:13:33.858Z,21.50
2023-05-06T14:16:00.712Z,21.60
2023-05-06T14:18:28.293Z,21.70
2023-05-06T14:20:55.320Z,21.80
2023-05-06T14:23:22.233Z,21.80
2023-05-06T14:25:49.331Z,21.80
2023-05-06T14:28:16.297Z,21.80
2023-05-06T14:30:43.305Z,21.80
2023-05-06T14:33:10.629Z,21.70
2023-05-06T14:35:45.984Z,21.80
2023-05-06T14:38:12.831Z,21.90
2023-05-06T14:40:39.617Z,22.00
2023-05-06T14:43:09.308Z,22.10
2023-05-06T14:45:36.075Z,22.10
2023-05-06T14:48:03.123Z,22.10
2023-05-06T14:50:30.985Z,22.00
2023-05-06T14:52:57.895Z,22.00
2023-05-06T14:55:25.602Z,21.90
2023-05-06T14:57:52.370Z,21.90
2023-05-06T15:00:20.334Z,21.90
2023-05-06T15:02:47.176Z,22.00
2023-05-06T15:05:14.219Z,22.00
2023-05-06T15:07:41.418Z,22.10
2023-05-06T15:10:08.460Z,22.10
2023-05-06T15:12:36.819Z,22.10
2023-05-06T15:15:05.046Z,22.00
2023-05-06T15:17:32.527Z,21.90
2023-05-06T15:19:59.342Z,21.80
2023-05-06T15:22:26.168Z,21.80
2023-05-06T15:24:52.930Z,21.80
2023-05-06T15:27:19.641Z,21.80
2023-05-06T15:29:46.390Z,21.80
2023-05-06T15:32:13.226Z,21.70
2023-05-06T15:34:39.987Z,21.70
2023-05-06T15:37:08.050Z,21.60
2023-05-06T15:39:39.215Z,21.60
2023-05-06T15:42:06.325Z,21.40
2023-05-06T15:44:33.913Z,21.40
2023-05-06T15:47:01.050Z,21.40
2023-05-06T15:52:00.582Z,21.40
2023-05-06T15:54:28.529Z,21.40
2023-05-06T15:56:56.337Z,21.50
2023-05-06T15:59:23.188Z,21.50
2023-05-06T16:02:25.517Z,21.50
2023-05-06T16:04:37.143Z,21.50
2023-05-06T16:07:04.067Z,21.50
2023-05-06T16:09:30.876Z,21.40
2023-05-06T16:11:58.094Z,21.40
2023-05-06T16:14:24.858Z,21.30
2023-05-06T16:16:51.658Z,21.20
2023-05-06T16:19:18.592Z,21.10
2023-05-06T16:21:45.320Z,21.10
2023-05-06T16:24:12.051Z,21.00
2023-05-06T16:26:38.788Z,20.90
2023-05-06T16:29:06.646Z,20.80
2023-05-06T16:31:33.866Z,20.70
2023-05-06T16:34:00.626Z,20.60
2023-05-06T16:36:28.513Z,20.60
2023-05-06T16:38:55.472Z,20.60
2023-05-06T16:41:22.213Z,20.60
2023-05-06T16:43:49.521Z,20.50
2023-05-06T16:46:16.331Z,20.50
2023-05-06T16:48:43.250Z,20.50
2023-05-06T16:51:12.204Z,20.50
2023-05-06T16:53:39.196Z,20.50
2023-05-06T16:56:06.286Z,20.50
2023-05-06T16:58:33.104Z,20.40
2023-05-06T17:00:59.899Z,20.40
2023-05-06T17:03:26.820Z,20.30
2023-05-06T17:05:56.265Z,20.20
2023-05-06T17:08:24.437Z,20.10
2023-05-06T17:10:53.466Z,20.00
2023-05-06T17:13:20.352Z,19.90
2023-05-06T17:15:47.176Z,19.80
2023-05-06T17:18:14.149Z,19.70
2023-05-06T17:20:54.186Z,19.60
2023-05-06T17:23:21.851Z,19.50
2023-05-06T17:25:48.652Z,19.40
2023-05-06T17:28:16.773Z,19.30
2023-05-06T17:30:44.890Z,19.10
2023-05-06T17:33:11.783Z,19.10
2023-05-06T17:35:38.582Z,19.00
2023-05-06T17:38:05.382Z,18.90
2023-05-06T17:40:32.124Z,18.80
2023-05-06T17:42:58.944Z,18.70
2023-05-06T17:45:26.774Z,18.60
2023-05-06T17:47:53.645Z,18.50
2023-05-06T17:50:20.473Z,18.40
2023-05-06T17:52:50.879Z,18.30
2023-05-06T17:55:17.864Z,18.20
2023-05-06T17:57:44.716Z,18.10
2023-05-06T18:00:11.945Z,18.10
2023-05-06T18:02:38.973Z,18.00
2023-05-06T18:05:06.469Z,18.00
2023-05-06T18:07:35.687Z,17.90
2023-05-06T18:10:02.537Z,17.80
2023-05-06T18:12:30.367Z,17.80
2023-05-06T18:14:57.862Z,17.70
2023-05-06T18:17:24.662Z,17.60
2023-05-06T18:19:51.779Z,17.50
2023-05-06T18:22:18.514Z,17.30
2023-05-06T18:24:45.285Z,17.20
2023-05-06T18:27:13.029Z,17.10
2023-05-06T18:29:41.231Z,17.00
2023-05-06T18:32:08.376Z,16.90
2023-05-06T18:34:35.431Z,16.80
2023-05-06T18:37:02.234Z,16.60
2023-05-06T18:39:29.088Z,16.50
2023-05-06T18:41:55.874Z,16.30
2023-05-06T18:44:22.614Z,16.20
2023-05-06T18:46:49.379Z,16.10
2023-05-06T18:49:16.431Z,16.00
2023-05-06T18:51:43.153Z,15.80
2023-05-06T18:54:09.940Z,15.70
2023-05-06T18:56:37.522Z,15.60
2023-05-06T18:59:04.271Z,15.50
2023-05-06T19:01:31.157Z,15.40
2023-05-06T19:03:58.092Z,15.30
2023-05-06T19:06:24.985Z,15.20
2023-05-06T19:08:51.779Z,15.10
2023-05-06T19:11:19.181Z,15.00
2023-05-06T19:13:46.472Z,15.00
2023-05-06T19:16:14.054Z,14.90
2023-05-06T19:18:41.064Z,14.80
2023-05-06T19:21:12.178Z,14.80
2023-05-06T19:23:39.143Z,14.70
2023-05-06T19:26:07.134Z,14.60
2023-05-06T19:28:34.373Z,14.50
2023-05-06T19:31:01.703Z,14.40
2023-05-06T19:33:28.748Z,14.40
2023-05-06T19:35:55.470Z,14.30
2023-05-06T19:38:22.196Z,14.30
2023-05-06T19:40:48.958Z,14.20
2023-05-06T19:43:15.696Z,14.10
2023-05-06T19:45:42.525Z,14.10
2023-05-06T19:48:09.408Z,14.00
2023-05-06T19:50:36.699Z,14.00
2023-05-06T19:53:03.588Z,13.90
2023-05-06T19:55:30.946Z,13.90
2023-05-06T19:57:58.061Z,13.80
2023-05-06T20:00:27.919Z,13.80
2023-05-06T20:02:56.424Z,13.80
2023-05-06T20:05:23.544Z,13.70
2023-05-06T20:07:51.206Z,13.70
2023-05-06T20:10:18.074Z,13.60
2023-05-06T20:12:44.993Z,13.60
2023-05-06T20:15:12.195Z,13.50
2023-05-06T20:17:39.421Z,13.50
2023-05-06T20:20:09.988Z,13.50
2023-05-06T20:22:37.931Z,13.40
2023-05-06T20:25:13.125Z,13.40
2023-05-06T20:27:40.511Z,13.50
2023-05-06T20:30:09.552Z,13.40
2023-05-06T20:32:37.703Z,13.40
2023-05-06T20:35:05.270Z,13.40
2023-05-06T20:37:33.656Z,13.30
2023-05-06T20:40:00.836Z,13.30
2023-05-06T20:42:27.894Z,13.30
2023-05-06T20:44:54.656Z,13.20
2023-05-06T20:47:21.535Z,13.20
2023-05-06T20:49:48.355Z,13.20
2023-05-06T20:52:15.076Z,13.20
2023-05-06T20:54:43.250Z,13.20
2023-05-06T20:57:11.461Z,13.10
2023-05-06T20:59:38.268Z,13.10
2023-05-06T21:02:05.578Z,13.00
2023-05-06T21:04:32.825Z,12.90
2023-05-06T21:06:59.851Z,12.90
2023-05-06T21:09:28.015Z,12.90
2023-05-06T21:11:55.691Z,12.80
2023-05-06T21:14:24.789Z,12.70
2023-05-06T21:16:52.269Z,12.70
2023-05-06T21:19:19.908Z,12.70
2023-05-06T21:21:46.908Z,12.60
2023-05-06T21:24:13.697Z,12.50
2023-05-06T21:26:40.522Z,12.50
2023-05-06T21:29:07.490Z,12.40
2023-05-06T21:31:34.400Z,12.40
2023-05-06T21:34:01.329Z,12.40
2023-05-06T21:36:28.222Z,12.30
2023-05-06T21:39:09.855Z,12.30
2023-05-06T21:41:37.048Z,12.30
2023-05-06T21:44:05.868Z,12.20
2023-05-06T21:46:33.716Z,12.20
2023-05-06T21:49:01.056Z,12.20
2023-05-06T21:51:28.672Z,12.20
2023-05-06T21:53:55.546Z,12.20
2023-05-06T21:56:22.699Z,12.10
2023-05-06T21:58:49.662Z,12.10
2023-05-06T22:01:16.838Z,12.00
2023-05-06T22:03:45.986Z,12.00
2023-05-06T22:06:13.258Z,12.00
2023-05-06T22:08:41.173Z,11.90
2023-05-06T22:11:08.249Z,11.90
2023-05-06T22:13:35.190Z,11.90
2023-05-06T22:16:02.031Z,11.80
2023-05-06T22:18:30.029Z,11.80
2023-05-06T22:20:57.854Z,11.80
2023-05-06T22:23:25.423Z,11.80
2023-05-06T22:25:52.379Z,11.80
2023-05-06T22:28:19.826Z,11.80
2023-05-06T22:30:46.668Z,11.80
2023-05-06T22:33:13.611Z,11.70
2023-05-06T22:35:40.611Z,11.70
2023-05-06T22:38:08.735Z,11.70
2023-05-06T22:40:35.510Z,11.60
2023-05-06T22:43:02.354Z,11.60
2023-05-06T22:45:29.270Z,11.60
2023-05-06T22:47:56.279Z,11.50
2023-05-06T22:50:23.149Z,11.50
2023-05-06T22:52:49.869Z,11.50
2023-05-06T22:55:16.608Z,11.50
2023-05-06T22:57:43.470Z,11.50
2023-05-06T23:00:12.557Z,11.50
2023-05-06T23:02:39.849Z,11.50
2023-05-06T23:05:07.230Z,11.50
2023-05-06T23:07:34.149Z,11.50
2023-05-06T23:10:01.283Z,11.50
2023-05-06T23:12:32.793Z,11.40
2023-05-06T23:15:00.401Z,11.40
2023-05-06T23:17:27.240Z,11.30
2023-05-06T23:19:54.088Z,11.30
2023-05-06T23:22:20.992Z,11.30
2023-05-06T23:24:47.784Z,11.30
2023-05-06T23:27:14.670Z,11.30
2023-05-06T23:29:41.422Z,11.30
2023-05-06T23:32:08.275Z,11.30
2023-05-06T23:34:34.995Z,11.20
2023-05-06T23:37:01.733Z,11.20
2023-05-06T23:39:29.626Z,11.20
2023-05-06T23:41:56.345Z,11.20
2023-05-06T23:44:23.354Z,11.20
2023-05-06T23:46:50.246Z,11.20
2023-05-06T23:49:17.157Z,11.20
2023-05-06T23:51:43.875Z,11.10
2023-05-06T23:54:10.726Z,11.20
2023-05-06T23:56:37.439Z,11.10
2023-05-06T23:59:04.190Z,11.10
